HomeShort term forecast

Short term forecast

Graphical weather forecast for the next 48 hours for Montreal:
Short term forecast
This weather forecast is automatically refreshed every 3 hours.

Hourly Experimental Forecast for the next 48 hours ®

Overall summary: Mostly cloudy throughout the day.

 Date & Hour   Temp   Feel   Baro   Hum   Speed & Bearing   Wind Gust   Precip.%   Precip.   Visibility   Cloud cover   Conditions 
 23/07/2018 - 11:00  28.1°C  30.7°C  1019.5 hPa  69%  12.2 km/h   22.5 km/h  0%  --  16.1km  84%  Mostly Cloudy 
 23/07/2018 - 12:00  29.3°C  32.1°C  1019.3 hPa  63%  15.2 km/h   24.6 km/h  3%  0.01 mm/h  16.1km  85%  Mostly Cloudy 
 23/07/2018 - 13:00  30.3°C  33.0°C  1018.9 hPa  58%  17.8 km/h   26.2 km/h  5%  0.09 mm/h  16.1km  88%  Mostly Cloudy 
 23/07/2018 - 14:00  30.9°C  33.7°C  1018.8 hPa  56%  19.3 km/h   27.5 km/h  9%  0.18 mm/h  16.1km  86%  Mostly Cloudy 
 23/07/2018 - 15:00  31.1°C  33.9°C  1018.5 hPa  56%  21.7 km/h   33.3 km/h  8%  0.14 mm/h  16.1km  89%  Mostly Cloudy 
 23/07/2018 - 16:00  30.1°C  33.1°C  1018.6 hPa  60%  25.1 km/h   46.1 km/h  13%  0.16 mm/h  16.1km  94%  Breezy and Overcast 
 23/07/2018 - 17:00  29.1°C  31.9°C  1018.5 hPa  65%  23.4 km/h   43.9 km/h  13%  0.11 mm/h  16.1km  91%  Mostly Cloudy 
 23/07/2018 - 18:00  28.5°C  31.1°C  1018.6 hPa  66%  22.6 km/h   44.8 km/h  12%  0.07 mm/h  16.1km  77%  Mostly Cloudy 
 23/07/2018 - 19:00  27.7°C  30.0°C  1018.7 hPa  70%  20.7 km/h   43.1 km/h  10%  0.03 mm/h  16.1km  82%  Mostly Cloudy 
 23/07/2018 - 20:00  26.7°C  28.6°C  1018.9 hPa  74%  19.9 km/h   43.9 km/h  8%  0.01 mm/h  16.1km  90%  Mostly Cloudy 
 23/07/2018 - 21:00  25.8°C  26.4°C  1019.4 hPa  78%  18.9 km/h   44.6 km/h  9%  0.02 mm/h  16.1km  87%  Mostly Cloudy 
 23/07/2018 - 22:00  25.2°C  25.9°C  1019.7 hPa  80%  17.9 km/h   43.4 km/h  9%  0.05 mm/h  16.1km  87%  Mostly Cloudy 
 23/07/2018 - 23:00  24.8°C  25.5°C  1019.9 hPa  82%  16.7 km/h   42.0 km/h  5%  0.05 mm/h  16.1km  91%  Mostly Cloudy 
 24/07/2018 - 00:00  24.6°C  25.2°C  1020.1 hPa  82%  16.3 km/h   38.7 km/h  4%  0.09 mm/h  16.1km  84%  Mostly Cloudy 
 24/07/2018 - 01:00  24.1°C  24.7°C  1020.2 hPa  82%  16.9 km/h   43.5 km/h  4%  0.14 mm/h  16.1km  99%  Overcast 
 24/07/2018 - 02:00  23.9°C  24.5°C  1020.1 hPa  82%  17.2 km/h   43.5 km/h  4%  0.17 mm/h  16.1km  99%  Overcast 
 24/07/2018 - 03:00  23.5°C  24.1°C  1020.1 hPa  83%  17.0 km/h   42.6 km/h  3%  0.14 mm/h  16.1km  99%  Overcast 
 24/07/2018 - 04:00  23.2°C  23.8°C  1020.1 hPa  84%  17.1 km/h   41.3 km/h  3%  0.09 mm/h  16.1km  99%  Overcast 
 24/07/2018 - 05:00  23.0°C  23.5°C  1020.1 hPa  85%  17.2 km/h   40.2 km/h  3%  0.06 mm/h  16.1km  97%  Overcast 
 24/07/2018 - 06:00  22.9°C  23.5°C  1020.2 hPa  85%  17.7 km/h   39.6 km/h  4%  0.06 mm/h  16.1km  90%  Mostly Cloudy 
 24/07/2018 - 07:00  23.3°C  23.9°C  1020.4 hPa  83%  18.8 km/h   39.2 km/h  3%  0.07 mm/h  16.1km  80%  Mostly Cloudy 
 24/07/2018 - 08:00  24.1°C  24.7°C  1020.4 hPa  79%  20.2 km/h   39.1 km/h  4%  0.07 mm/h  16.1km  58%  Partly Cloudy 
 24/07/2018 - 09:00  25.0°C  25.6°C  1020.4 hPa  76%  21.4 km/h   39.1 km/h  4%  0.05 mm/h  16.1km  67%  Mostly Cloudy 
 24/07/2018 - 10:00  25.8°C  26.3°C  1020.3 hPa  73%  22.1 km/h   39.4 km/h  4%  0.04 mm/h  16.1km  84%  Mostly Cloudy 
 24/07/2018 - 11:00  26.5°C  28.1°C  1020.2 hPa  70%  22.3 km/h   39.8 km/h  5%  0.04 mm/h  16.1km  95%  Overcast 
 24/07/2018 - 12:00  27.3°C  29.2°C  1019.8 hPa  67%  22.3 km/h   41.0 km/h  8%  0.11 mm/h  16.1km  97%  Overcast 
 24/07/2018 - 13:00  28.0°C  30.0°C  1019.2 hPa  65%  21.5 km/h   42.3 km/h  12%  0.34 mm/h  16.1km  99%  Overcast 
 24/07/2018 - 14:00  29.1°C  31.4°C  1018.6 hPa  61%  20.4 km/h   41.3 km/h  14%  0.59 mm/h  16.1km  99%  Overcast 
 24/07/2018 - 15:00  29.9°C  32.5°C  1018.0 hPa  59%  19.2 km/h   35.6 km/h  12%  0.63 mm/h  16.1km  99%  Overcast 
 24/07/2018 - 16:00  30.3°C  33.1°C  1017.4 hPa  59%  17.7 km/h   27.7 km/h  11%  0.58 mm/h  16.1km  98%  Overcast 
 24/07/2018 - 17:00  29.8°C  32.6°C  1017.1 hPa  61%  15.6 km/h   22.3 km/h  11%  0.57 mm/h  16.1km  97%  Overcast 
 24/07/2018 - 18:00  29.2°C  31.9°C  1016.9 hPa  63%  13.6 km/h   21.2 km/h  13%  0.60 mm/h  15.9km  92%  Mostly Cloudy 
 24/07/2018 - 19:00  28.1°C  30.4°C  1016.9 hPa  66%  12.7 km/h   22.3 km/h  14%  0.62 mm/h  16.1km  84%  Mostly Cloudy 
 24/07/2018 - 20:00  27.1°C  29.1°C  1017.0 hPa  70%  12.6 km/h   24.6 km/h  14%  0.58 mm/h  16.1km  76%  Mostly Cloudy 
 24/07/2018 - 21:00  26.1°C  26.6°C  1017.0 hPa  72%  12.9 km/h   28.6 km/h  12%  0.42 mm/h  15.9km  67%  Mostly Cloudy 
 24/07/2018 - 22:00  25.4°C  25.9°C  1017.0 hPa  73%  14.4 km/h   33.9 km/h  9%  0.29 mm/h  14.5km  57%  Partly Cloudy 
 24/07/2018 - 23:00  24.9°C  25.3°C  1016.9 hPa  73%  16.4 km/h   37.6 km/h  8%  0.25 mm/h  13.6km  49%  Partly Cloudy 
 25/07/2018 - 00:00  24.3°C  24.8°C  1016.8 hPa  75%  16.8 km/h   38.0 km/h  5%  0.13 mm/h  13.7km  45%  Partly Cloudy 
 25/07/2018 - 01:00  23.8°C  24.3°C  1016.6 hPa  77%  16.6 km/h   36.7 km/h  4%  0.03 mm/h  14.4km  45%  Partly Cloudy 
 25/07/2018 - 02:00  23.4°C  23.8°C  1016.2 hPa  79%  16.5 km/h   35.9 km/h  3%  0.01 mm/h  15.7km  49%  Partly Cloudy 
 25/07/2018 - 03:00  22.9°C  23.4°C  1015.8 hPa  81%  16.7 km/h   36.5 km/h  4%  0.12 mm/h  16.1km  52%  Partly Cloudy 
 25/07/2018 - 04:00  22.5°C  22.9°C  1015.3 hPa  83%  17.1 km/h   37.5 km/h  17%  0.64 mm/h  16.1km  57%  Partly Cloudy 
 25/07/2018 - 05:00  22.2°C  22.7°C  1014.9 hPa  85%  17.7 km/h   38.5 km/h  28%  1.05 mm/h  16.1km  57%  Possible Light Rain 
 25/07/2018 - 06:00  22.4°C  22.9°C  1014.6 hPa  85%  18.7 km/h   39.0 km/h  20%  0.60 mm/h  16.1km  55%  Partly Cloudy 
 25/07/2018 - 07:00  23.0°C  23.5°C  1014.5 hPa  84%  20.0 km/h   39.4 km/h  5%  0.11 mm/h  16.1km  51%  Partly Cloudy 
 25/07/2018 - 08:00  23.8°C  24.4°C  1014.3 hPa  81%  21.0 km/h   40.5 km/h  6%  0.02 mm/h  16.1km  50%  Partly Cloudy 
 25/07/2018 - 09:00  24.6°C  25.1°C  1014.0 hPa  78%  22.4 km/h   43.0 km/h  8%  0.16 mm/h  16.1km  55%  Partly Cloudy 
 25/07/2018 - 10:00  25.4°C  26.0°C  1013.6 hPa  74%  23.6 km/h   46.0 km/h  10%  0.20 mm/h  16.1km  64%  Mostly Cloudy 
Test

 

Past weather and reports

Past weatherFind in this section the past weather conditions, weather archive, graphics, reports and statistics.

Current conditions

Current weather condition for MontrealAll you need to know about the current weather conditions for Montreal. Weather data is updated every 10 minutes.

Weather forecast

Current Montreal weatherSince 2004, celinium.com website has provided accurate weather forecast for Montreal's island.